• Join FlightAware (Why Join?)
  • Login
  • US Flag 
03:17AM EST


 

Airport Tracker/Info


-or-


 

Live Flight TrackerFlight Track Log ✈ N247GC ✈ 26-Oct-2013 ✈ KJGG - KMTN

Flight Track Log - Related Links

Times and Time Zones

All times are in EDT time to prevent confusion due to time zone crossing. See the N247GC flight status page for this flight to view local times or setup timezone preferences in your user account.

Time Position Orientation Groundspeed Altitude Reporting Facility
EDT Latitude Longitude Course Direction KTS MPH feet Rate Location/Type
03:08PM 37.2394 -76.7475 245° Southwest 99 114 1,200  Level Washington Center
03:09PM 37.2308 -76.7708 245° Southwest 96 110 1,900 1,080 Climbing Washington Center
03:10PM 37.2369 -76.8022 284° West 122 140 3,100 900 Climbing Washington Center
03:11PM 37.3000 -76.7833 13° North 149 171 4,500 780 Climbing Potomac TRACON
03:12PM 37.3500 -76.7500 28° Northeast 165 190 5,300 840 Climbing Potomac TRACON
03:13PM 37.4000 -76.7333 15° North 173 199 6,300 840 Climbing Potomac TRACON
03:14PM 37.4333 -76.7000 38° Northeast 175 201 7,000 360 Climbing Potomac TRACON
03:15PM 37.4833 -76.6667 28° Northeast 203 234 7,100  Climbing Potomac TRACON
03:16PM 37.5333 -76.6500 15° North 214 246 7,100 -180 Level Potomac TRACON
03:17PM 37.6000 -76.6500 360° North 200 230 6,800 -540 Descending Potomac TRACON
03:18PM 37.6500 -76.6500 360° North 215 247 6,100 -600 Descending Potomac TRACON
03:19PM 37.7167 -76.6667 349° North 215 247 5,600 -480 Descending Potomac TRACON
03:20PM 37.7667 -76.6833 345° North 217 250 5,200 -300 Descending Potomac TRACON
03:21PM 37.8011 -76.6903 351° North 217 250 5,200 -120 Level Washington Center
03:22PM 37.8575 -76.6833 North 208 239 5,100 -60 Descending Washington Center
03:23PM 37.9181 -76.6736 North 210 242 5,100  Level Washington Center
03:24PM 37.9725 -76.6428 24° Northeast 215 247 5,100  Level Washington Center
03:25PM 38.0269 -76.6119 24° Northeast 213 245 5,100  Level Washington Center
03:26PM 38.0772 -76.5836 24° Northeast 213 245 5,100  Level Washington Center
03:27PM 38.1297 -76.5525 25° Northeast 213 245 5,100  Level Washington Center
03:28PM 38.1883 -76.5269 19° North 209 241 5,100  Level Washington Center
03:29PM 38.2428 -76.4986 22° Northeast 207 238 5,100  Level Washington Center
03:30PM 38.2950 -76.4728 21° North 208 239 5,100  Level Washington Center
03:31PM 38.3494 -76.4522 16° North 207 238 5,100  Level Washington Center
03:32PM 38.4058 -76.4289 18° North 208 239 5,100  Level Washington Center
03:33PM 38.4622 -76.4111 14° North 210 242 5,100 -60 Level Washington Center
03:35PM 38.5667 -76.3667 18° North 205 236 5,000 -60 Descending Potomac TRACON
03:36PM 38.6167 -76.3500 15° North 202 232 5,000  Level Potomac TRACON
03:37PM 38.6833 -76.3333 11° North 202 232 5,000 -60 Level Potomac TRACON
03:38PM 38.7333 -76.3333 360° North 200 230 4,900 -300 Descending Potomac TRACON
03:39PM 38.7833 -76.3500 345° North 210 242 4,500 -480 Descending Potomac TRACON
03:40PM 38.8500 -76.3500 360° North 212 244 4,000 -300 Descending Potomac TRACON
03:41PM 38.9000 -76.3500 360° North 202 232 4,000 -60 Level Potomac TRACON
03:42PM 38.9667 -76.3500 360° North 190 219 3,900 -300 Descending Potomac TRACON
03:43PM 39.0167 -76.3667 345° North 205 236 3,400 -480 Descending Potomac TRACON
03:44PM 39.0667 -76.3667 360° North 206 237 3,000 -480 Descending Potomac TRACON
03:45PM 39.1333 -76.3667 360° North 201 231 2,500 -540 Descending Potomac TRACON
03:46PM 39.1833 -76.3667 360° North 200 230 2,000 -420 Descending Potomac TRACON
03:47PM 39.2333 -76.3833 346° North 190 219 1,700 -240 Descending Potomac TRACON
03:48PM 39.2833 -76.4000 346° North 174 200 1,600 -60 Descending Potomac TRACON
03:49PM 39.3167 -76.4333 322° Northwest 148 170 1,600  Level Potomac TRACON
03:50PM 39.3333 -76.4667 303° West 125 144 1,600 -480 Level Potomac TRACON
03:51PM 39.3333 -76.4333 90° East 118 136 700 -1,020 Descending Potomac TRACON
03:53PM 39.3257 -76.4138 123° Southeast  Level Estimated